sensor_id;sensor_type;location;lat;lon;timestamp;P1;durP1;ratioP1;P2;durP2;ratioP2
27778;SDS011;30234;48.090;11.464;2023-06-26T00:00:34;6.68;;;5.55;;
27778;SDS011;30234;48.090;11.464;2023-06-26T00:04:34;10.13;;;5.80;;
27778;SDS011;30234;48.090;11.464;2023-06-26T00:08:37;8.23;;;5.85;;
27778;SDS011;30234;48.090;11.464;2023-06-26T00:12:38;7.30;;;6.03;;
27778;SDS011;30234;48.090;11.464;2023-06-26T00:16:39;8.02;;;6.20;;
27778;SDS011;30234;48.090;11.464;2023-06-26T00:20:39;9.10;;;7.07;;
27778;SDS011;30234;48.090;11.464;2023-06-26T00:24:40;8.75;;;5.68;;
27778;SDS011;30234;48.090;11.464;2023-06-26T00:28:41;8.27;;;6.10;;
27778;SDS011;30234;48.090;11.464;2023-06-26T00:32:42;7.32;;;5.88;;
27778;SDS011;30234;48.090;11.464;2023-06-26T00:36:43;9.73;;;6.30;;
27778;SDS011;30234;48.090;11.464;2023-06-26T00:40:44;8.93;;;5.70;;
27778;SDS011;30234;48.090;11.464;2023-06-26T00:44:45;9.63;;;6.38;;
27778;SDS011;30234;48.090;11.464;2023-06-26T00:48:46;7.07;;;5.45;;
27778;SDS011;30234;48.090;11.464;2023-06-26T00:52:48;10.20;;;6.35;;
27778;SDS011;30234;48.090;11.464;2023-06-26T00:56:49;8.82;;;6.03;;
27778;SDS011;30234;48.090;11.464;2023-06-26T01:00:50;10.32;;;5.63;;
27778;SDS011;30234;48.090;11.464;2023-06-26T01:04:52;8.68;;;6.25;;
27778;SDS011;30234;48.090;11.464;2023-06-26T01:08:54;7.45;;;5.85;;
27778;SDS011;30234;48.090;11.464;2023-06-26T01:12:55;9.88;;;6.25;;
27778;SDS011;30234;48.090;11.464;2023-06-26T01:16:58;6.75;;;5.38;;
27778;SDS011;30234;48.090;11.464;2023-06-26T01:21:01;7.20;;;5.38;;
27778;SDS011;30234;48.090;11.464;2023-06-26T01:29:22;8.10;;;5.35;;
27778;SDS011;30234;48.090;11.464;2023-06-26T01:33:24;7.18;;;5.22;;
27778;SDS011;30234;48.090;11.464;2023-06-26T01:37:26;6.88;;;5.30;;
27778;SDS011;30234;48.090;11.464;2023-06-26T01:41:27;8.25;;;5.80;;
27778;SDS011;30234;48.090;11.464;2023-06-26T01:45:27;8.77;;;5.22;;
27778;SDS011;30234;48.090;11.464;2023-06-26T01:49:47;6.82;;;5.40;;
27778;SDS011;30234;48.090;11.464;2023-06-26T01:53:59;9.63;;;6.35;;
27778;SDS011;30234;48.090;11.464;2023-06-26T01:58:01;6.70;;;4.95;;
27778;SDS011;30234;48.090;11.464;2023-06-26T02:02:06;8.50;;;6.07;;
27778;SDS011;30234;48.090;11.464;2023-06-26T02:06:07;8.10;;;6.43;;
27778;SDS011;30234;48.090;11.464;2023-06-26T02:10:08;7.78;;;5.53;;
27778;SDS011;30234;48.090;11.464;2023-06-26T02:14:10;7.65;;;5.70;;
27778;SDS011;30234;48.090;11.464;2023-06-26T02:18:12;7.80;;;5.88;;
27778;SDS011;30234;48.090;11.464;2023-06-26T02:22:13;7.05;;;5.60;;
27778;SDS011;30234;48.090;11.464;2023-06-26T02:26:15;8.07;;;5.82;;
27778;SDS011;30234;48.090;11.464;2023-06-26T02:30:16;8.55;;;5.95;;
27778;SDS011;30234;48.090;11.464;2023-06-26T02:34:17;7.22;;;5.85;;
27778;SDS011;30234;48.090;11.464;2023-06-26T02:38:18;6.90;;;5.10;;
27778;SDS011;30234;48.090;11.464;2023-06-26T02:42:19;9.43;;;5.50;;
27778;SDS011;30234;48.090;11.464;2023-06-26T02:46:20;7.53;;;5.97;;
27778;SDS011;30234;48.090;11.464;2023-06-26T02:50:20;8.13;;;6.13;;
27778;SDS011;30234;48.090;11.464;2023-06-26T02:54:21;10.70;;;6.25;;
27778;SDS011;30234;48.090;11.464;2023-06-26T02:58:22;8.18;;;5.82;;
27778;SDS011;30234;48.090;11.464;2023-06-26T03:02:23;9.35;;;6.47;;
27778;SDS011;30234;48.090;11.464;2023-06-26T03:06:24;8.55;;;5.93;;
27778;SDS011;30234;48.090;11.464;2023-06-26T03:10:25;8.32;;;5.97;;
27778;SDS011;30234;48.090;11.464;2023-06-26T03:14:26;8.25;;;6.28;;
27778;SDS011;30234;48.090;11.464;2023-06-26T03:18:27;10.20;;;6.40;;
27778;SDS011;30234;48.090;11.464;2023-06-26T03:22:28;8.63;;;5.85;;
27778;SDS011;30234;48.090;11.464;2023-06-26T03:26:29;7.93;;;6.10;;
27778;SDS011;30234;48.090;11.464;2023-06-26T03:30:30;7.32;;;5.70;;
27778;SDS011;30234;48.090;11.464;2023-06-26T03:34:31;8.60;;;6.22;;
27778;SDS011;30234;48.090;11.464;2023-06-26T03:38:32;8.23;;;5.95;;
27778;SDS011;30234;48.090;11.464;2023-06-26T03:42:33;10.40;;;6.10;;
27778;SDS011;30234;48.090;11.464;2023-06-26T03:46:34;8.43;;;6.40;;
27778;SDS011;30234;48.090;11.464;2023-06-26T03:50:35;8.75;;;5.85;;
27778;SDS011;30234;48.090;11.464;2023-06-26T03:54:36;9.50;;;5.70;;
27778;SDS011;30234;48.090;11.464;2023-06-26T03:58:37;8.95;;;6.32;;
27778;SDS011;30234;48.090;11.464;2023-06-26T04:02:38;9.23;;;6.53;;
27778;SDS011;30234;48.090;11.464;2023-06-26T04:06:39;8.82;;;6.30;;
27778;SDS011;30234;48.090;11.464;2023-06-26T04:10:40;10.98;;;6.40;;
27778;SDS011;30234;48.090;11.464;2023-06-26T04:14:40;9.48;;;5.88;;
27778;SDS011;30234;48.090;11.464;2023-06-26T04:18:41;8.20;;;6.15;;
27778;SDS011;30234;48.090;11.464;2023-06-26T04:22:42;8.88;;;5.95;;
27778;SDS011;30234;48.090;11.464;2023-06-26T04:26:43;9.65;;;5.55;;
27778;SDS011;30234;48.090;11.464;2023-06-26T04:30:45;8.07;;;6.07;;
27778;SDS011;30234;48.090;11.464;2023-06-26T04:34:46;7.72;;;5.45;;
27778;SDS011;30234;48.090;11.464;2023-06-26T04:38:48;12.07;;;6.05;;
27778;SDS011;30234;48.090;11.464;2023-06-26T04:42:49;11.55;;;7.00;;
27778;SDS011;30234;48.090;11.464;2023-06-26T04:46:50;7.20;;;5.38;;
27778;SDS011;30234;48.090;11.464;2023-06-26T04:50:52;7.38;;;5.63;;
27778;SDS011;30234;48.090;11.464;2023-06-26T04:54:54;7.47;;;5.88;;
27778;SDS011;30234;48.090;11.464;2023-06-26T04:58:54;9.40;;;6.30;;
27778;SDS011;30234;48.090;11.464;2023-06-26T05:02:55;7.97;;;6.13;;
27778;SDS011;30234;48.090;11.464;2023-06-26T05:07:00;8.48;;;6.32;;
27778;SDS011;30234;48.090;11.464;2023-06-26T05:11:01;9.40;;;5.85;;
27778;SDS011;30234;48.090;11.464;2023-06-26T05:15:02;7.35;;;5.90;;
27778;SDS011;30234;48.090;11.464;2023-06-26T05:19:04;7.50;;;6.18;;
27778;SDS011;30234;48.090;11.464;2023-06-26T05:23:05;7.55;;;6.18;;
27778;SDS011;30234;48.090;11.464;2023-06-26T05:27:06;15.27;;;7.20;;
27778;SDS011;30234;48.090;11.464;2023-06-26T05:31:07;7.60;;;6.05;;
27778;SDS011;30234;48.090;11.464;2023-06-26T05:35:09;6.97;;;6.28;;
27778;SDS011;30234;48.090;11.464;2023-06-26T05:39:11;6.88;;;6.18;;
27778;SDS011;30234;48.090;11.464;2023-06-26T05:43:12;6.32;;;5.65;;
27778;SDS011;30234;48.090;11.464;2023-06-26T05:47:13;9.50;;;6.47;;
27778;SDS011;30234;48.090;11.464;2023-06-26T05:51:14;7.53;;;6.28;;
27778;SDS011;30234;48.090;11.464;2023-06-26T05:55:15;8.07;;;6.50;;
27778;SDS011;30234;48.090;11.464;2023-06-26T05:59:16;7.32;;;6.43;;
27778;SDS011;30234;48.090;11.464;2023-06-26T06:03:18;7.25;;;6.47;;
27778;SDS011;30234;48.090;11.464;2023-06-26T06:07:19;7.80;;;6.63;;
27778;SDS011;30234;48.090;11.464;2023-06-26T06:11:20;8.18;;;6.25;;
27778;SDS011;30234;48.090;11.464;2023-06-26T06:15:22;7.63;;;6.78;;
27778;SDS011;30234;48.090;11.464;2023-06-26T06:19:23;6.93;;;6.22;;
27778;SDS011;30234;48.090;11.464;2023-06-26T06:23:25;6.90;;;6.20;;
27778;SDS011;30234;48.090;11.464;2023-06-26T06:27:26;8.40;;;5.93;;
27778;SDS011;30234;48.090;11.464;2023-06-26T06:31:27;6.55;;;5.75;;
27778;SDS011;30234;48.090;11.464;2023-06-26T06:35:28;7.13;;;5.15;;
27778;SDS011;30234;48.090;11.464;2023-06-26T06:39:29;6.15;;;5.35;;
27778;SDS011;30234;48.090;11.464;2023-06-26T06:43:30;6.50;;;5.80;;
27778;SDS011;30234;48.090;11.464;2023-06-26T06:47:31;7.00;;;5.63;;
27778;SDS011;30234;48.090;11.464;2023-06-26T06:51:32;7.72;;;5.68;;
27778;SDS011;30234;48.090;11.464;2023-06-26T06:55:33;9.73;;;5.95;;
27778;SDS011;30234;48.090;11.464;2023-06-26T06:59:34;8.65;;;6.18;;
27778;SDS011;30234;48.090;11.464;2023-06-26T07:03:35;7.43;;;5.88;;
27778;SDS011;30234;48.090;11.464;2023-06-26T07:07:36;6.32;;;5.72;;
27778;SDS011;30234;48.090;11.464;2023-06-26T07:11:38;5.75;;;5.15;;
27778;SDS011;30234;48.090;11.464;2023-06-26T07:15:39;6.57;;;5.47;;
27778;SDS011;30234;48.090;11.464;2023-06-26T07:19:40;6.97;;;5.18;;
27778;SDS011;30234;48.090;11.464;2023-06-26T07:23:41;6.78;;;5.70;;
27778;SDS011;30234;48.090;11.464;2023-06-26T07:27:42;6.05;;;4.97;;
27778;SDS011;30234;48.090;11.464;2023-06-26T07:31:44;6.15;;;5.45;;
27778;SDS011;30234;48.090;11.464;2023-06-26T07:35:45;7.45;;;6.13;;
27778;SDS011;30234;48.090;11.464;2023-06-26T07:39:46;7.72;;;5.50;;
27778;SDS011;30234;48.090;11.464;2023-06-26T07:43:48;5.90;;;5.40;;
27778;SDS011;30234;48.090;11.464;2023-06-26T07:47:48;8.20;;;6.13;;
27778;SDS011;30234;48.090;11.464;2023-06-26T07:51:49;6.55;;;5.82;;
27778;SDS011;30234;48.090;11.464;2023-06-26T07:55:50;6.88;;;5.22;;
27778;SDS011;30234;48.090;11.464;2023-06-26T07:59:51;6.28;;;5.68;;
27778;SDS011;30234;48.090;11.464;2023-06-26T08:03:52;7.15;;;5.53;;
27778;SDS011;30234;48.090;11.464;2023-06-26T08:07:53;6.28;;;5.50;;
27778;SDS011;30234;48.090;11.464;2023-06-26T08:11:54;7.03;;;5.88;;
27778;SDS011;30234;48.090;11.464;2023-06-26T08:15:55;6.03;;;5.40;;
27778;SDS011;30234;48.090;11.464;2023-06-26T08:19:56;6.75;;;5.40;;
27778;SDS011;30234;48.090;11.464;2023-06-26T08:23:56;5.65;;;5.00;;
27778;SDS011;30234;48.090;11.464;2023-06-26T08:27:57;6.47;;;5.35;;
27778;SDS011;30234;48.090;11.464;2023-06-26T08:31:59;6.72;;;5.47;;
27778;SDS011;30234;48.090;11.464;2023-06-26T08:36:02;8.23;;;6.03;;
27778;SDS011;30234;48.090;11.464;2023-06-26T08:40:03;6.75;;;5.38;;
27778;SDS011;30234;48.090;11.464;2023-06-26T08:44:05;6.28;;;5.68;;
27778;SDS011;30234;48.090;11.464;2023-06-26T08:48:07;5.75;;;5.13;;
27778;SDS011;30234;48.090;11.464;2023-06-26T08:52:14;6.10;;;5.22;;
27778;SDS011;30234;48.090;11.464;2023-06-26T08:56:20;4.70;;;4.30;;
27778;SDS011;30234;48.090;11.464;2023-06-26T09:00:23;7.28;;;5.65;;
27778;SDS011;30234;48.090;11.464;2023-06-26T09:04:24;6.40;;;5.22;;
27778;SDS011;30234;48.090;11.464;2023-06-26T09:08:25;6.35;;;5.60;;
27778;SDS011;30234;48.090;11.464;2023-06-26T09:12:27;6.03;;;5.10;;
27778;SDS011;30234;48.090;11.464;2023-06-26T09:16:28;9.25;;;5.47;;
27778;SDS011;30234;48.090;11.464;2023-06-26T09:20:29;5.40;;;4.90;;
27778;SDS011;30234;48.090;11.464;2023-06-26T09:24:33;4.72;;;4.20;;
27778;SDS011;30234;48.090;11.464;2023-06-26T09:28:34;6.80;;;4.50;;
27778;SDS011;30234;48.090;11.464;2023-06-26T09:32:35;4.93;;;4.43;;
27778;SDS011;30234;48.090;11.464;2023-06-26T09:36:37;7.60;;;5.03;;
27778;SDS011;30234;48.090;11.464;2023-06-26T09:40:37;4.97;;;4.00;;
27778;SDS011;30234;48.090;11.464;2023-06-26T09:44:43;4.68;;;4.22;;
27778;SDS011;30234;48.090;11.464;2023-06-26T09:48:45;4.00;;;3.70;;
27778;SDS011;30234;48.090;11.464;2023-06-26T09:52:46;4.38;;;3.75;;
27778;SDS011;30234;48.090;11.464;2023-06-26T09:56:47;5.10;;;3.90;;
27778;SDS011;30234;48.090;11.464;2023-06-26T10:00:48;6.53;;;3.92;;
27778;SDS011;30234;48.090;11.464;2023-06-26T10:04:49;7.43;;;4.10;;
27778;SDS011;30234;48.090;11.464;2023-06-26T10:08:50;4.18;;;3.58;;
27778;SDS011;30234;48.090;11.464;2023-06-26T10:16:59;6.00;;;4.18;;
27778;SDS011;30234;48.090;11.464;2023-06-26T10:21:04;4.07;;;3.72;;
27778;SDS011;30234;48.090;11.464;2023-06-26T10:25:07;4.63;;;4.00;;
27778;SDS011;30234;48.090;11.464;2023-06-26T10:29:11;7.43;;;4.35;;
27778;SDS011;30234;48.090;11.464;2023-06-26T10:33:15;4.32;;;3.92;;
27778;SDS011;30234;48.090;11.464;2023-06-26T10:37:17;6.00;;;4.65;;
27778;SDS011;30234;48.090;11.464;2023-06-26T10:41:21;6.32;;;3.92;;
27778;SDS011;30234;48.090;11.464;2023-06-26T10:45:23;4.43;;;3.97;;
27778;SDS011;30234;48.090;11.464;2023-06-26T10:49:29;4.25;;;3.83;;
27778;SDS011;30234;48.090;11.464;2023-06-26T10:53:30;4.53;;;4.13;;
27778;SDS011;30234;48.090;11.464;2023-06-26T10:57:38;4.10;;;3.78;;
27778;SDS011;30234;48.090;11.464;2023-06-26T11:01:42;6.05;;;4.32;;
27778;SDS011;30234;48.090;11.464;2023-06-26T11:05:45;4.55;;;4.15;;
27778;SDS011;30234;48.090;11.464;2023-06-26T11:10:08;4.72;;;4.22;;
27778;SDS011;30234;48.090;11.464;2023-06-26T11:14:10;4.35;;;3.95;;
27778;SDS011;30234;48.090;11.464;2023-06-26T11:18:12;4.57;;;4.10;;
27778;SDS011;30234;48.090;11.464;2023-06-26T11:22:14;4.72;;;4.30;;
27778;SDS011;30234;48.090;11.464;2023-06-26T11:26:16;7.90;;;4.20;;
27778;SDS011;30234;48.090;11.464;2023-06-26T11:30:24;5.45;;;4.85;;
27778;SDS011;30234;48.090;11.464;2023-06-26T11:34:29;5.18;;;4.53;;
27778;SDS011;30234;48.090;11.464;2023-06-26T11:38:36;4.57;;;4.03;;
27778;SDS011;30234;48.090;11.464;2023-06-26T11:42:38;5.82;;;4.72;;
27778;SDS011;30234;48.090;11.464;2023-06-26T11:46:39;5.88;;;4.55;;
27778;SDS011;30234;48.090;11.464;2023-06-26T11:50:40;6.03;;;4.60;;
27778;SDS011;30234;48.090;11.464;2023-06-26T11:54:41;7.22;;;4.55;;
27778;SDS011;30234;48.090;11.464;2023-06-26T11:58:56;6.22;;;5.20;;
27778;SDS011;30234;48.090;11.464;2023-06-26T12:03:02;5.20;;;4.70;;
27778;SDS011;30234;48.090;11.464;2023-06-26T12:07:03;6.15;;;4.82;;
27778;SDS011;30234;48.090;11.464;2023-06-26T12:11:08;4.90;;;4.40;;
27778;SDS011;30234;48.090;11.464;2023-06-26T12:15:12;5.97;;;4.40;;
27778;SDS011;30234;48.090;11.464;2023-06-26T12:19:15;5.35;;;4.85;;
27778;SDS011;30234;48.090;11.464;2023-06-26T12:23:16;5.53;;;4.93;;
27778;SDS011;30234;48.090;11.464;2023-06-26T12:27:18;5.80;;;5.05;;
27778;SDS011;30234;48.090;11.464;2023-06-26T12:31:20;4.93;;;4.53;;
27778;SDS011;30234;48.090;11.464;2023-06-26T12:35:21;5.78;;;5.20;;
27778;SDS011;30234;48.090;11.464;2023-06-26T12:39:22;6.32;;;5.10;;
27778;SDS011;30234;48.090;11.464;2023-06-26T12:43:25;6.25;;;4.88;;
27778;SDS011;30234;48.090;11.464;2023-06-26T12:47:29;5.82;;;5.32;;
27778;SDS011;30234;48.090;11.464;2023-06-26T12:51:31;8.98;;;5.18;;
27778;SDS011;30234;48.090;11.464;2023-06-26T12:55:32;5.18;;;4.57;;
27778;SDS011;30234;48.090;11.464;2023-06-26T12:59:34;6.82;;;5.28;;
27778;SDS011;30234;48.090;11.464;2023-06-26T13:03:38;5.85;;;5.35;;
27778;SDS011;30234;48.090;11.464;2023-06-26T13:07:40;11.15;;;5.88;;
27778;SDS011;30234;48.090;11.464;2023-06-26T13:11:41;6.88;;;5.13;;
27778;SDS011;30234;48.090;11.464;2023-06-26T13:15:41;4.95;;;4.55;;
27778;SDS011;30234;48.090;11.464;2023-06-26T13:19:42;5.38;;;4.82;;
27778;SDS011;30234;48.090;11.464;2023-06-26T13:23:44;6.20;;;5.05;;
27778;SDS011;30234;48.090;11.464;2023-06-26T13:27:45;8.10;;;5.38;;
27778;SDS011;30234;48.090;11.464;2023-06-26T13:31:46;6.15;;;5.47;;
27778;SDS011;30234;48.090;11.464;2023-06-26T13:35:47;5.63;;;5.07;;
27778;SDS011;30234;48.090;11.464;2023-06-26T13:39:48;6.22;;;5.35;;
27778;SDS011;30234;48.090;11.464;2023-06-26T13:43:49;6.65;;;5.85;;
27778;SDS011;30234;48.090;11.464;2023-06-26T13:47:51;7.72;;;6.22;;
27778;SDS011;30234;48.090;11.464;2023-06-26T13:51:52;7.63;;;5.78;;
27778;SDS011;30234;48.090;11.464;2023-06-26T13:55:53;7.07;;;5.22;;
27778;SDS011;30234;48.090;11.464;2023-06-26T13:59:54;7.88;;;5.80;;
27778;SDS011;30234;48.090;11.464;2023-06-26T14:03:54;12.27;;;5.22;;
27778;SDS011;30234;48.090;11.464;2023-06-26T14:07:55;6.28;;;5.25;;
27778;SDS011;30234;48.090;11.464;2023-06-26T14:11:56;8.25;;;5.00;;
27778;SDS011;30234;48.090;11.464;2023-06-26T14:15:58;7.30;;;5.40;;
27778;SDS011;30234;48.090;11.464;2023-06-26T14:19:58;5.63;;;5.05;;
27778;SDS011;30234;48.090;11.464;2023-06-26T14:23:59;6.00;;;5.18;;
27778;SDS011;30234;48.090;11.464;2023-06-26T14:28:00;6.82;;;5.30;;
27778;SDS011;30234;48.090;11.464;2023-06-26T14:32:01;7.38;;;5.30;;
27778;SDS011;30234;48.090;11.464;2023-06-26T14:36:03;5.40;;;4.60;;
27778;SDS011;30234;48.090;11.464;2023-06-26T14:40:05;5.60;;;5.07;;
27778;SDS011;30234;48.090;11.464;2023-06-26T14:44:07;5.82;;;5.28;;
27778;SDS011;30234;48.090;11.464;2023-06-26T14:48:10;6.35;;;5.75;;
27778;SDS011;30234;48.090;11.464;2023-06-26T14:52:11;7.05;;;5.70;;
27778;SDS011;30234;48.090;11.464;2023-06-26T14:56:12;6.85;;;4.93;;
27778;SDS011;30234;48.090;11.464;2023-06-26T15:00:13;5.68;;;5.18;;
27778;SDS011;30234;48.090;11.464;2023-06-26T15:04:15;8.48;;;5.05;;
27778;SDS011;30234;48.090;11.464;2023-06-26T15:08:15;5.55;;;5.05;;
27778;SDS011;30234;48.090;11.464;2023-06-26T15:12:16;6.72;;;5.95;;
27778;SDS011;30234;48.090;11.464;2023-06-26T15:16:17;6.55;;;5.38;;
27778;SDS011;30234;48.090;11.464;2023-06-26T15:20:18;7.32;;;5.82;;
27778;SDS011;30234;48.090;11.464;2023-06-26T15:24:19;9.70;;;5.60;;
27778;SDS011;30234;48.090;11.464;2023-06-26T15:28:20;6.55;;;5.03;;
27778;SDS011;30234;48.090;11.464;2023-06-26T15:32:21;7.53;;;5.40;;
27778;SDS011;30234;48.090;11.464;2023-06-26T15:36:22;8.63;;;5.53;;
27778;SDS011;30234;48.090;11.464;2023-06-26T15:40:23;7.97;;;6.20;;
27778;SDS011;30234;48.090;11.464;2023-06-26T15:44:23;8.98;;;6.75;;
27778;SDS011;30234;48.090;11.464;2023-06-26T15:48:24;11.90;;;6.13;;
27778;SDS011;30234;48.090;11.464;2023-06-26T15:52:25;6.70;;;6.03;;
27778;SDS011;30234;48.090;11.464;2023-06-26T15:56:26;8.98;;;5.45;;
27778;SDS011;30234;48.090;11.464;2023-06-26T16:00:27;10.40;;;5.93;;
27778;SDS011;30234;48.090;11.464;2023-06-26T16:04:28;7.50;;;5.90;;
27778;SDS011;30234;48.090;11.464;2023-06-26T16:08:31;6.72;;;5.93;;
27778;SDS011;30234;48.090;11.464;2023-06-26T16:12:32;7.10;;;6.00;;
27778;SDS011;30234;48.090;11.464;2023-06-26T16:16:33;10.88;;;6.25;;
27778;SDS011;30234;48.090;11.464;2023-06-26T16:20:34;10.88;;;5.30;;
27778;SDS011;30234;48.090;11.464;2023-06-26T16:24:35;8.13;;;6.13;;
27778;SDS011;30234;48.090;11.464;2023-06-26T16:28:36;6.43;;;5.40;;
27778;SDS011;30234;48.090;11.464;2023-06-26T16:32:37;8.00;;;6.13;;
27778;SDS011;30234;48.090;11.464;2023-06-26T16:36:37;9.50;;;6.18;;
27778;SDS011;30234;48.090;11.464;2023-06-26T16:40:38;6.97;;;6.22;;
27778;SDS011;30234;48.090;11.464;2023-06-26T16:44:39;7.25;;;6.32;;
27778;SDS011;30234;48.090;11.464;2023-06-26T16:48:40;6.35;;;5.75;;
27778;SDS011;30234;48.090;11.464;2023-06-26T16:52:41;9.30;;;5.90;;
27778;SDS011;30234;48.090;11.464;2023-06-26T16:56:43;7.50;;;6.05;;
27778;SDS011;30234;48.090;11.464;2023-06-26T17:00:44;6.78;;;5.65;;
27778;SDS011;30234;48.090;11.464;2023-06-26T17:04:46;6.00;;;5.38;;
27778;SDS011;30234;48.090;11.464;2023-06-26T17:08:46;7.88;;;6.75;;
27778;SDS011;30234;48.090;11.464;2023-06-26T17:12:47;6.70;;;6.10;;
27778;SDS011;30234;48.090;11.464;2023-06-26T17:16:48;7.75;;;6.07;;
27778;SDS011;30234;48.090;11.464;2023-06-26T17:20:49;6.38;;;5.78;;
27778;SDS011;30234;48.090;11.464;2023-06-26T17:24:50;6.57;;;5.90;;
27778;SDS011;30234;48.090;11.464;2023-06-26T17:28:51;7.57;;;5.88;;
27778;SDS011;30234;48.090;11.464;2023-06-26T17:32:51;6.45;;;5.30;;
27778;SDS011;30234;48.090;11.464;2023-06-26T17:36:54;6.97;;;6.05;;
27778;SDS011;30234;48.090;11.464;2023-06-26T17:40:54;12.98;;;6.38;;
27778;SDS011;30234;48.090;11.464;2023-06-26T17:44:55;6.30;;;5.63;;
27778;SDS011;30234;48.090;11.464;2023-06-26T17:48:56;7.63;;;5.95;;
27778;SDS011;30234;48.090;11.464;2023-06-26T17:52:57;10.60;;;6.47;;
27778;SDS011;30234;48.090;11.464;2023-06-26T17:57:00;6.75;;;5.88;;
27778;SDS011;30234;48.090;11.464;2023-06-26T18:01:01;11.57;;;6.38;;
27778;SDS011;30234;48.090;11.464;2023-06-26T18:05:02;8.05;;;7.05;;
27778;SDS011;30234;48.090;11.464;2023-06-26T18:09:03;10.63;;;6.57;;
27778;SDS011;30234;48.090;11.464;2023-06-26T18:13:05;9.23;;;6.95;;
27778;SDS011;30234;48.090;11.464;2023-06-26T18:17:06;11.15;;;6.70;;
27778;SDS011;30234;48.090;11.464;2023-06-26T18:21:07;10.90;;;7.25;;
27778;SDS011;30234;48.090;11.464;2023-06-26T18:25:08;8.07;;;6.45;;
27778;SDS011;30234;48.090;11.464;2023-06-26T18:29:09;11.45;;;6.68;;
27778;SDS011;30234;48.090;11.464;2023-06-26T18:33:09;9.18;;;6.70;;
27778;SDS011;30234;48.090;11.464;2023-06-26T18:37:10;9.63;;;7.10;;
27778;SDS011;30234;48.090;11.464;2023-06-26T18:41:11;8.38;;;7.07;;
27778;SDS011;30234;48.090;11.464;2023-06-26T18:45:13;8.80;;;6.32;;
27778;SDS011;30234;48.090;11.464;2023-06-26T18:49:14;9.25;;;6.80;;
27778;SDS011;30234;48.090;11.464;2023-06-26T18:53:15;7.60;;;6.43;;
27778;SDS011;30234;48.090;11.464;2023-06-26T18:57:16;6.80;;;6.10;;
27778;SDS011;30234;48.090;11.464;2023-06-26T19:01:16;13.48;;;7.03;;
27778;SDS011;30234;48.090;11.464;2023-06-26T19:05:17;9.18;;;7.03;;
27778;SDS011;30234;48.090;11.464;2023-06-26T19:09:20;7.78;;;6.50;;
27778;SDS011;30234;48.090;11.464;2023-06-26T19:13:21;7.57;;;6.03;;
27778;SDS011;30234;48.090;11.464;2023-06-26T19:17:22;7.43;;;6.53;;
27778;SDS011;30234;48.090;11.464;2023-06-26T19:21:23;8.70;;;6.30;;
27778;SDS011;30234;48.090;11.464;2023-06-26T19:25:24;11.05;;;7.10;;
27778;SDS011;30234;48.090;11.464;2023-06-26T19:29:25;9.32;;;6.65;;
27778;SDS011;30234;48.090;11.464;2023-06-26T19:33:26;6.97;;;5.35;;
27778;SDS011;30234;48.090;11.464;2023-06-26T19:37:27;6.72;;;5.32;;
27778;SDS011;30234;48.090;11.464;2023-06-26T19:41:28;9.52;;;5.97;;
27778;SDS011;30234;48.090;11.464;2023-06-26T19:45:29;10.80;;;5.72;;
27778;SDS011;30234;48.090;11.464;2023-06-26T19:49:31;7.88;;;5.85;;
27778;SDS011;30234;48.090;11.464;2023-06-26T19:53:32;7.93;;;5.72;;
27778;SDS011;30234;48.090;11.464;2023-06-26T19:57:32;7.05;;;5.68;;
27778;SDS011;30234;48.090;11.464;2023-06-26T20:01:33;7.75;;;5.15;;
27778;SDS011;30234;48.090;11.464;2023-06-26T20:05:34;5.88;;;5.10;;
27778;SDS011;30234;48.090;11.464;2023-06-26T20:09:36;9.82;;;5.88;;
27778;SDS011;30234;48.090;11.464;2023-06-26T20:13:37;8.43;;;6.05;;
27778;SDS011;30234;48.090;11.464;2023-06-26T20:17:38;9.05;;;6.07;;
27778;SDS011;30234;48.090;11.464;2023-06-26T20:21:39;6.13;;;5.32;;
27778;SDS011;30234;48.090;11.464;2023-06-26T20:25:40;8.10;;;5.93;;
27778;SDS011;30234;48.090;11.464;2023-06-26T20:29:41;9.95;;;5.90;;
27778;SDS011;30234;48.090;11.464;2023-06-26T20:33:43;8.30;;;5.50;;
27778;SDS011;30234;48.090;11.464;2023-06-26T20:37:44;8.70;;;5.55;;
27778;SDS011;30234;48.090;11.464;2023-06-26T20:41:45;10.65;;;6.53;;
27778;SDS011;30234;48.090;11.464;2023-06-26T20:45:46;10.93;;;5.90;;
27778;SDS011;30234;48.090;11.464;2023-06-26T20:49:49;10.05;;;5.53;;
27778;SDS011;30234;48.090;11.464;2023-06-26T20:53:51;11.30;;;5.70;;
27778;SDS011;30234;48.090;11.464;2023-06-26T20:57:52;8.88;;;5.22;;
27778;SDS011;30234;48.090;11.464;2023-06-26T21:01:53;9.43;;;5.85;;
27778;SDS011;30234;48.090;11.464;2023-06-26T21:05:55;7.47;;;5.13;;
27778;SDS011;30234;48.090;11.464;2023-06-26T21:09:57;8.43;;;6.00;;
27778;SDS011;30234;48.090;11.464;2023-06-26T21:13:59;9.77;;;6.50;;
27778;SDS011;30234;48.090;11.464;2023-06-26T21:18:00;6.55;;;5.53;;
27778;SDS011;30234;48.090;11.464;2023-06-26T21:22:01;7.22;;;5.75;;
27778;SDS011;30234;48.090;11.464;2023-06-26T21:26:02;8.32;;;5.53;;
27778;SDS011;30234;48.090;11.464;2023-06-26T21:30:03;8.40;;;5.80;;
27778;SDS011;30234;48.090;11.464;2023-06-26T21:34:07;11.18;;;6.13;;
27778;SDS011;30234;48.090;11.464;2023-06-26T21:38:08;9.73;;;5.40;;
27778;SDS011;30234;48.090;11.464;2023-06-26T21:42:09;10.63;;;5.32;;
27778;SDS011;30234;48.090;11.464;2023-06-26T21:46:10;15.25;;;5.10;;
27778;SDS011;30234;48.090;11.464;2023-06-26T21:50:11;12.60;;;5.03;;
27778;SDS011;30234;48.090;11.464;2023-06-26T21:54:12;9.75;;;5.07;;
27778;SDS011;30234;48.090;11.464;2023-06-26T21:58:13;8.63;;;5.30;;
27778;SDS011;30234;48.090;11.464;2023-06-26T22:02:13;6.07;;;4.50;;
27778;SDS011;30234;48.090;11.464;2023-06-26T22:06:14;13.02;;;4.35;;
27778;SDS011;30234;48.090;11.464;2023-06-26T22:10:15;9.73;;;4.60;;
27778;SDS011;30234;48.090;11.464;2023-06-26T22:14:16;6.22;;;3.55;;
27778;SDS011;30234;48.090;11.464;2023-06-26T22:18:17;9.77;;;3.28;;
27778;SDS011;30234;48.090;11.464;2023-06-26T22:22:18;4.82;;;2.88;;
27778;SDS011;30234;48.090;11.464;2023-06-26T22:26:19;4.82;;;2.88;;
27778;SDS011;30234;48.090;11.464;2023-06-26T22:30:21;5.90;;;2.83;;
27778;SDS011;30234;48.090;11.464;2023-06-26T22:34:23;3.70;;;2.78;;
27778;SDS011;30234;48.090;11.464;2023-06-26T22:38:24;8.10;;;3.20;;
27778;SDS011;30234;48.090;11.464;2023-06-26T22:42:25;4.80;;;2.97;;
27778;SDS011;30234;48.090;11.464;2023-06-26T22:46:26;5.47;;;2.90;;
27778;SDS011;30234;48.090;11.464;2023-06-26T22:50:27;4.68;;;2.47;;
27778;SDS011;30234;48.090;11.464;2023-06-26T22:54:28;6.07;;;2.75;;
27778;SDS011;30234;48.090;11.464;2023-06-26T22:58:31;7.50;;;2.60;;
27778;SDS011;30234;48.090;11.464;2023-06-26T23:02:32;3.45;;;1.88;;
27778;SDS011;30234;48.090;11.464;2023-06-26T23:06:33;7.75;;;2.35;;
27778;SDS011;30234;48.090;11.464;2023-06-26T23:10:34;4.07;;;2.13;;
27778;SDS011;30234;48.090;11.464;2023-06-26T23:14:35;7.85;;;2.20;;
27778;SDS011;30234;48.090;11.464;2023-06-26T23:18:36;10.27;;;4.40;;
27778;SDS011;30234;48.090;11.464;2023-06-26T23:22:37;6.28;;;1.70;;
27778;SDS011;30234;48.090;11.464;2023-06-26T23:26:38;2.78;;;1.67;;
27778;SDS011;30234;48.090;11.464;2023-06-26T23:30:39;2.90;;;1.52;;
27778;SDS011;30234;48.090;11.464;2023-06-26T23:34:42;6.00;;;1.95;;
27778;SDS011;30234;48.090;11.464;2023-06-26T23:38:43;5.22;;;2.28;;
27778;SDS011;30234;48.090;11.464;2023-06-26T23:42:44;3.22;;;1.80;;
27778;SDS011;30234;48.090;11.464;2023-06-26T23:46:45;7.00;;;1.80;;
27778;SDS011;30234;48.090;11.464;2023-06-26T23:50:46;5.00;;;1.50;;
27778;SDS011;30234;48.090;11.464;2023-06-26T23:54:47;7.30;;;2.38;;
27778;SDS011;30234;48.090;11.464;2023-06-26T23:58:48;3.13;;;1.40;;
